Newhall, Iowa
Current Conditions -  °F | °C
As of 4:15 AM on Thursday 29 Jan 2015 (Local Time) from KVTI Reporting Station
Broken Clouds Broken Clouds  
Wind Chill: 26°   Ceiling: 1100
Heat Index: 35°   Visibility: 7mi
Dew Point: 31°   Wind: 13mph
Humidity: 87%   Direction: 330°NNW
Pressure: 29.87"   Gusts: 22mph
Location:  42°N, 91.97°W
Report Text: KVTI 291015Z AUTO 33011G19KT 7SM BKN011 BKN019 02/00 A2987 RMK AO2 T00171003
Loading
Personal Weather Stations






























Interactive Weather Map New forecast layout! Learn more

10-Day Weather Forecast

Advertisements
Track Severe Weather on mobile